sensor_id;sensor_type;location;lat;lon;timestamp;P1;durP1;ratioP1;P2;durP2;ratioP2
52322;SDS011;38263;52.920;6.238;2023-02-18T00:01:17;15.55;;;3.50;;
52322;SDS011;38263;52.920;6.238;2023-02-18T00:03:43;11.02;;;3.33;;
52322;SDS011;38263;52.920;6.238;2023-02-18T00:06:11;12.32;;;3.40;;
52322;SDS011;38263;52.920;6.238;2023-02-18T00:08:37;13.48;;;3.42;;
52322;SDS011;38263;52.920;6.238;2023-02-18T00:11:06;19.63;;;4.70;;
52322;SDS011;38263;52.920;6.238;2023-02-18T00:13:33;13.38;;;3.30;;
52322;SDS011;38263;52.920;6.238;2023-02-18T00:16:09;22.02;;;3.28;;
52322;SDS011;38263;52.920;6.238;2023-02-18T00:18:35;13.82;;;3.40;;
52322;SDS011;38263;52.920;6.238;2023-02-18T00:21:02;18.45;;;3.72;;
52322;SDS011;38263;52.920;6.238;2023-02-18T00:23:28;18.40;;;3.40;;
52322;SDS011;38263;52.920;6.238;2023-02-18T00:25:58;18.58;;;4.15;;
52322;SDS011;38263;52.920;6.238;2023-02-18T00:28:28;17.20;;;4.72;;
52322;SDS011;38263;52.920;6.238;2023-02-18T00:30:54;18.27;;;3.60;;
52322;SDS011;38263;52.920;6.238;2023-02-18T00:33:20;21.73;;;3.58;;
52322;SDS011;38263;52.920;6.238;2023-02-18T00:35:45;17.45;;;3.95;;
52322;SDS011;38263;52.920;6.238;2023-02-18T00:38:11;15.55;;;4.22;;
52322;SDS011;38263;52.920;6.238;2023-02-18T00:40:38;19.52;;;4.72;;
52322;SDS011;38263;52.920;6.238;2023-02-18T00:43:04;15.13;;;3.75;;
52322;SDS011;38263;52.920;6.238;2023-02-18T00:45:30;10.18;;;3.40;;
52322;SDS011;38263;52.920;6.238;2023-02-18T00:47:56;15.18;;;4.00;;
52322;SDS011;38263;52.920;6.238;2023-02-18T00:50:22;17.58;;;4.72;;
52322;SDS011;38263;52.920;6.238;2023-02-18T00:52:48;12.77;;;4.68;;
52322;SDS011;38263;52.920;6.238;2023-02-18T00:55:14;17.00;;;4.28;;
52322;SDS011;38263;52.920;6.238;2023-02-18T00:57:40;21.52;;;5.50;;
52322;SDS011;38263;52.920;6.238;2023-02-18T01:00:06;11.43;;;4.65;;
52322;SDS011;38263;52.920;6.238;2023-02-18T01:02:33;15.07;;;4.97;;
52322;SDS011;38263;52.920;6.238;2023-02-18T01:04:59;24.63;;;6.55;;
52322;SDS011;38263;52.920;6.238;2023-02-18T01:07:24;21.80;;;6.35;;
52322;SDS011;38263;52.920;6.238;2023-02-18T01:09:50;22.20;;;6.50;;
52322;SDS011;38263;52.920;6.238;2023-02-18T01:12:16;15.55;;;6.18;;
52322;SDS011;38263;52.920;6.238;2023-02-18T01:14:43;24.30;;;6.55;;
52322;SDS011;38263;52.920;6.238;2023-02-18T01:17:09;22.42;;;7.10;;
52322;SDS011;38263;52.920;6.238;2023-02-18T01:19:35;28.05;;;7.03;;
52322;SDS011;38263;52.920;6.238;2023-02-18T01:22:01;18.77;;;6.35;;
52322;SDS011;38263;52.920;6.238;2023-02-18T01:24:27;23.75;;;6.93;;
52322;SDS011;38263;52.920;6.238;2023-02-18T01:26:53;23.52;;;8.07;;
52322;SDS011;38263;52.920;6.238;2023-02-18T01:29:19;17.13;;;7.35;;
52322;SDS011;38263;52.920;6.238;2023-02-18T01:31:45;20.85;;;8.52;;
52322;SDS011;38263;52.920;6.238;2023-02-18T01:34:11;15.65;;;7.35;;
52322;SDS011;38263;52.920;6.238;2023-02-18T01:36:37;22.77;;;8.20;;
52322;SDS011;38263;52.920;6.238;2023-02-18T01:39:04;16.98;;;6.82;;
52322;SDS011;38263;52.920;6.238;2023-02-18T01:41:30;26.10;;;8.00;;
52322;SDS011;38263;52.920;6.238;2023-02-18T01:46:54;17.00;;;7.45;;
52322;SDS011;38263;52.920;6.238;2023-02-18T01:49:25;16.40;;;6.65;;
52322;SDS011;38263;52.920;6.238;2023-02-18T01:51:57;21.02;;;7.20;;
52322;SDS011;38263;52.920;6.238;2023-02-18T01:54:28;19.33;;;6.95;;
52322;SDS011;38263;52.920;6.238;2023-02-18T01:56:58;22.65;;;6.85;;
52322;SDS011;38263;52.920;6.238;2023-02-18T01:59:25;19.27;;;6.30;;
52322;SDS011;38263;52.920;6.238;2023-02-18T02:01:52;18.98;;;5.95;;
52322;SDS011;38263;52.920;6.238;2023-02-18T02:04:19;17.67;;;6.53;;
52322;SDS011;38263;52.920;6.238;2023-02-18T02:06:45;15.85;;;6.22;;
52322;SDS011;38263;52.920;6.238;2023-02-18T02:09:11;18.05;;;6.03;;
52322;SDS011;38263;52.920;6.238;2023-02-18T02:11:40;19.42;;;5.80;;
52322;SDS011;38263;52.920;6.238;2023-02-18T02:27:12;22.67;;;5.82;;
52322;SDS011;38263;52.920;6.238;2023-02-18T02:39:46;13.65;;;4.93;;
52322;SDS011;38263;52.920;6.238;2023-02-18T02:44:49;19.33;;;5.82;;
52322;SDS011;38263;52.920;6.238;2023-02-18T02:47:21;14.05;;;4.50;;
52322;SDS011;38263;52.920;6.238;2023-02-18T02:50:00;14.48;;;4.00;;
52322;SDS011;38263;52.920;6.238;2023-02-18T02:52:36;14.68;;;3.83;;
52322;SDS011;38263;52.920;6.238;2023-02-18T02:55:07;12.05;;;4.25;;
52322;SDS011;38263;52.920;6.238;2023-02-18T03:00:00;10.00;;;3.85;;
52322;SDS011;38263;52.920;6.238;2023-02-18T03:05:36;13.35;;;4.22;;
52322;SDS011;38263;52.920;6.238;2023-02-18T03:08:06;12.93;;;4.75;;
52322;SDS011;38263;52.920;6.238;2023-02-18T03:10:54;13.07;;;5.07;;
52322;SDS011;38263;52.920;6.238;2023-02-18T03:19:05;21.17;;;7.03;;
52322;SDS011;38263;52.920;6.238;2023-02-18T03:21:36;25.58;;;9.73;;
52322;SDS011;38263;52.920;6.238;2023-02-18T03:24:07;27.15;;;11.50;;
52322;SDS011;38263;52.920;6.238;2023-02-18T03:26:35;34.10;;;12.50;;
52322;SDS011;38263;52.920;6.238;2023-02-18T03:29:03;34.22;;;12.63;;
52322;SDS011;38263;52.920;6.238;2023-02-18T03:31:33;30.60;;;11.90;;
52322;SDS011;38263;52.920;6.238;2023-02-18T03:34:01;31.98;;;12.43;;
52322;SDS011;38263;52.920;6.238;2023-02-18T03:36:28;26.88;;;12.63;;
52322;SDS011;38263;52.920;6.238;2023-02-18T03:38:58;34.03;;;12.95;;
52322;SDS011;38263;52.920;6.238;2023-02-18T03:41:27;33.22;;;14.30;;
52322;SDS011;38263;52.920;6.238;2023-02-18T03:43:54;32.97;;;14.70;;
52322;SDS011;38263;52.920;6.238;2023-02-18T03:46:24;35.08;;;16.42;;
52322;SDS011;38263;52.920;6.238;2023-02-18T03:48:50;37.15;;;17.55;;
52322;SDS011;38263;52.920;6.238;2023-02-18T03:51:17;42.13;;;16.17;;
52322;SDS011;38263;52.920;6.238;2023-02-18T03:53:43;41.00;;;17.95;;
52322;SDS011;38263;52.920;6.238;2023-02-18T03:56:09;39.60;;;18.08;;
52322;SDS011;38263;52.920;6.238;2023-02-18T03:58:35;40.15;;;17.27;;
52322;SDS011;38263;52.920;6.238;2023-02-18T04:01:02;46.55;;;18.85;;
52322;SDS011;38263;52.920;6.238;2023-02-18T04:03:28;51.33;;;20.25;;
52322;SDS011;38263;52.920;6.238;2023-02-18T04:05:54;46.10;;;19.73;;
52322;SDS011;38263;52.920;6.238;2023-02-18T04:08:20;43.33;;;21.42;;
52322;SDS011;38263;52.920;6.238;2023-02-18T04:10:46;51.75;;;21.13;;
52322;SDS011;38263;52.920;6.238;2023-02-18T04:13:12;51.15;;;20.98;;
52322;SDS011;38263;52.920;6.238;2023-02-18T04:15:38;47.42;;;22.25;;
52322;SDS011;38263;52.920;6.238;2023-02-18T04:18:04;56.85;;;23.65;;
52322;SDS011;38263;52.920;6.238;2023-02-18T04:20:30;59.40;;;23.27;;
52322;SDS011;38263;52.920;6.238;2023-02-18T04:22:56;50.55;;;23.45;;
52322;SDS011;38263;52.920;6.238;2023-02-18T04:25:21;56.75;;;24.67;;
52322;SDS011;38263;52.920;6.238;2023-02-18T04:27:47;60.10;;;24.60;;
52322;SDS011;38263;52.920;6.238;2023-02-18T04:30:13;63.00;;;24.27;;
52322;SDS011;38263;52.920;6.238;2023-02-18T04:32:39;62.58;;;24.58;;
52322;SDS011;38263;52.920;6.238;2023-02-18T04:35:05;63.10;;;28.38;;
52322;SDS011;38263;52.920;6.238;2023-02-18T04:37:31;63.38;;;24.70;;
52322;SDS011;38263;52.920;6.238;2023-02-18T04:39:57;60.00;;;24.98;;
52322;SDS011;38263;52.920;6.238;2023-02-18T04:42:23;62.92;;;25.90;;
52322;SDS011;38263;52.920;6.238;2023-02-18T04:44:49;63.13;;;26.17;;
52322;SDS011;38263;52.920;6.238;2023-02-18T04:47:15;62.90;;;27.38;;
52322;SDS011;38263;52.920;6.238;2023-02-18T04:49:41;65.97;;;28.75;;
52322;SDS011;38263;52.920;6.238;2023-02-18T04:52:07;67.75;;;28.75;;
52322;SDS011;38263;52.920;6.238;2023-02-18T04:54:32;65.78;;;28.33;;
52322;SDS011;38263;52.920;6.238;2023-02-18T04:56:58;66.68;;;28.08;;
52322;SDS011;38263;52.920;6.238;2023-02-18T04:59:24;75.20;;;29.50;;
52322;SDS011;38263;52.920;6.238;2023-02-18T05:01:50;66.60;;;28.25;;
52322;SDS011;38263;52.920;6.238;2023-02-18T05:04:16;73.50;;;28.45;;
52322;SDS011;38263;52.920;6.238;2023-02-18T05:06:43;73.05;;;28.70;;
52322;SDS011;38263;52.920;6.238;2023-02-18T05:09:09;77.90;;;30.73;;
52322;SDS011;38263;52.920;6.238;2023-02-18T05:11:35;79.97;;;32.38;;
52322;SDS011;38263;52.920;6.238;2023-02-18T05:14:01;81.32;;;31.55;;
52322;SDS011;38263;52.920;6.238;2023-02-18T05:16:27;89.30;;;35.88;;
52322;SDS011;38263;52.920;6.238;2023-02-18T05:18:53;91.40;;;32.33;;
52322;SDS011;38263;52.920;6.238;2023-02-18T05:21:19;94.82;;;33.20;;
52322;SDS011;38263;52.920;6.238;2023-02-18T05:23:45;82.93;;;31.35;;
52322;SDS011;38263;52.920;6.238;2023-02-18T05:26:11;86.03;;;31.77;;
52322;SDS011;38263;52.920;6.238;2023-02-18T05:28:36;65.65;;;24.60;;
52322;SDS011;38263;52.920;6.238;2023-02-18T05:31:02;61.22;;;25.35;;
52322;SDS011;38263;52.920;6.238;2023-02-18T05:33:28;67.50;;;27.10;;
52322;SDS011;38263;52.920;6.238;2023-02-18T05:35:54;51.53;;;19.98;;
52322;SDS011;38263;52.920;6.238;2023-02-18T05:38:20;39.00;;;18.88;;
52322;SDS011;38263;52.920;6.238;2023-02-18T05:40:46;51.00;;;19.95;;
52322;SDS011;38263;52.920;6.238;2023-02-18T05:43:12;39.45;;;17.30;;
52322;SDS011;38263;52.920;6.238;2023-02-18T05:45:38;28.65;;;15.00;;
52322;SDS011;38263;52.920;6.238;2023-02-18T05:48:04;39.97;;;16.35;;
52322;SDS011;38263;52.920;6.238;2023-02-18T05:50:30;26.77;;;12.50;;
52322;SDS011;38263;52.920;6.238;2023-02-18T05:52:56;31.48;;;14.80;;
52322;SDS011;38263;52.920;6.238;2023-02-18T05:55:22;23.10;;;12.50;;
52322;SDS011;38263;52.920;6.238;2023-02-18T05:57:48;22.58;;;11.93;;
52322;SDS011;38263;52.920;6.238;2023-02-18T06:00:15;21.98;;;11.45;;
52322;SDS011;38263;52.920;6.238;2023-02-18T06:02:41;21.25;;;11.57;;
52322;SDS011;38263;52.920;6.238;2023-02-18T06:05:07;19.38;;;10.60;;
52322;SDS011;38263;52.920;6.238;2023-02-18T06:07:34;20.75;;;11.00;;
52322;SDS011;38263;52.920;6.238;2023-02-18T06:10:00;19.20;;;10.75;;
52322;SDS011;38263;52.920;6.238;2023-02-18T06:12:26;21.35;;;10.30;;
52322;SDS011;38263;52.920;6.238;2023-02-18T06:14:52;18.63;;;9.68;;
52322;SDS011;38263;52.920;6.238;2023-02-18T06:17:18;17.98;;;10.23;;
52322;SDS011;38263;52.920;6.238;2023-02-18T06:19:44;17.48;;;10.48;;
52322;SDS011;38263;52.920;6.238;2023-02-18T06:22:11;16.60;;;9.50;;
52322;SDS011;38263;52.920;6.238;2023-02-18T06:24:37;15.93;;;9.07;;
52322;SDS011;38263;52.920;6.238;2023-02-18T06:27:03;16.98;;;10.13;;
52322;SDS011;38263;52.920;6.238;2023-02-18T06:29:29;18.63;;;10.68;;
52322;SDS011;38263;52.920;6.238;2023-02-18T06:31:56;19.40;;;11.70;;
52322;SDS011;38263;52.920;6.238;2023-02-18T06:34:22;20.58;;;13.20;;
52322;SDS011;38263;52.920;6.238;2023-02-18T06:36:48;22.38;;;12.70;;
52322;SDS011;38263;52.920;6.238;2023-02-18T06:39:14;17.35;;;10.88;;
52322;SDS011;38263;52.920;6.238;2023-02-18T06:41:39;25.67;;;14.07;;
52322;SDS011;38263;52.920;6.238;2023-02-18T06:44:06;25.00;;;12.98;;
52322;SDS011;38263;52.920;6.238;2023-02-18T06:46:32;24.58;;;13.32;;
52322;SDS011;38263;52.920;6.238;2023-02-18T06:48:58;21.90;;;14.35;;
52322;SDS011;38263;52.920;6.238;2023-02-18T06:51:24;28.42;;;15.38;;
52322;SDS011;38263;52.920;6.238;2023-02-18T06:53:50;29.88;;;17.05;;
52322;SDS011;38263;52.920;6.238;2023-02-18T06:56:16;31.42;;;15.95;;
52322;SDS011;38263;52.920;6.238;2023-02-18T06:58:42;34.67;;;15.98;;
52322;SDS011;38263;52.920;6.238;2023-02-18T07:01:08;25.77;;;13.27;;
52322;SDS011;38263;52.920;6.238;2023-02-18T07:03:34;25.73;;;14.50;;
52322;SDS011;38263;52.920;6.238;2023-02-18T07:06:00;28.45;;;13.75;;
52322;SDS011;38263;52.920;6.238;2023-02-18T07:08:26;29.23;;;15.57;;
52322;SDS011;38263;52.920;6.238;2023-02-18T07:10:52;26.23;;;14.07;;
52322;SDS011;38263;52.920;6.238;2023-02-18T07:13:18;29.02;;;13.00;;
52322;SDS011;38263;52.920;6.238;2023-02-18T07:15:44;22.63;;;12.65;;
52322;SDS011;38263;52.920;6.238;2023-02-18T07:18:10;25.17;;;13.73;;
52322;SDS011;38263;52.920;6.238;2023-02-18T07:20:36;20.27;;;12.02;;
52322;SDS011;38263;52.920;6.238;2023-02-18T07:23:02;23.13;;;12.32;;
52322;SDS011;38263;52.920;6.238;2023-02-18T07:25:27;24.23;;;12.10;;
52322;SDS011;38263;52.920;6.238;2023-02-18T07:27:53;25.23;;;11.85;;
52322;SDS011;38263;52.920;6.238;2023-02-18T07:30:19;24.15;;;11.15;;
52322;SDS011;38263;52.920;6.238;2023-02-18T07:32:45;22.35;;;10.52;;
52322;SDS011;38263;52.920;6.238;2023-02-18T07:35:12;17.02;;;10.07;;
52322;SDS011;38263;52.920;6.238;2023-02-18T07:37:38;20.10;;;9.35;;
52322;SDS011;38263;52.920;6.238;2023-02-18T07:40:04;17.67;;;9.70;;
52322;SDS011;38263;52.920;6.238;2023-02-18T07:42:30;17.00;;;8.35;;
52322;SDS011;38263;52.920;6.238;2023-02-18T07:44:56;20.17;;;9.02;;
52322;SDS011;38263;52.920;6.238;2023-02-18T07:47:23;22.73;;;10.00;;
52322;SDS011;38263;52.920;6.238;2023-02-18T07:49:49;14.40;;;7.40;;
52322;SDS011;38263;52.920;6.238;2023-02-18T07:52:15;15.07;;;7.30;;
52322;SDS011;38263;52.920;6.238;2023-02-18T07:54:41;18.65;;;8.48;;
52322;SDS011;38263;52.920;6.238;2023-02-18T07:57:07;13.90;;;7.07;;
52322;SDS011;38263;52.920;6.238;2023-02-18T07:59:33;18.88;;;6.97;;
52322;SDS011;38263;52.920;6.238;2023-02-18T08:01:58;20.77;;;7.18;;
52322;SDS011;38263;52.920;6.238;2023-02-18T08:04:24;15.88;;;6.30;;
52322;SDS011;38263;52.920;6.238;2023-02-18T08:06:50;14.30;;;5.80;;
52322;SDS011;38263;52.920;6.238;2023-02-18T08:09:17;14.75;;;5.43;;
52322;SDS011;38263;52.920;6.238;2023-02-18T08:11:43;14.27;;;5.88;;
52322;SDS011;38263;52.920;6.238;2023-02-18T08:14:08;17.15;;;6.03;;
52322;SDS011;38263;52.920;6.238;2023-02-18T08:16:34;17.13;;;6.68;;
52322;SDS011;38263;52.920;6.238;2023-02-18T08:19:00;14.23;;;6.05;;
52322;SDS011;38263;52.920;6.238;2023-02-18T08:21:27;20.17;;;7.15;;
52322;SDS011;38263;52.920;6.238;2023-02-18T08:23:54;20.42;;;6.80;;
52322;SDS011;38263;52.920;6.238;2023-02-18T08:26:20;16.80;;;6.45;;
52322;SDS011;38263;52.920;6.238;2023-02-18T08:28:46;19.30;;;9.15;;
52322;SDS011;38263;52.920;6.238;2023-02-18T08:31:15;17.23;;;7.32;;
52322;SDS011;38263;52.920;6.238;2023-02-18T08:33:41;18.80;;;8.23;;
52322;SDS011;38263;52.920;6.238;2023-02-18T08:36:07;15.32;;;7.75;;
52322;SDS011;38263;52.920;6.238;2023-02-18T08:38:34;12.45;;;7.65;;
52322;SDS011;38263;52.920;6.238;2023-02-18T08:41:04;14.63;;;8.20;;
52322;SDS011;38263;52.920;6.238;2023-02-18T08:43:30;17.75;;;7.40;;
52322;SDS011;38263;52.920;6.238;2023-02-18T08:45:56;13.38;;;7.72;;
52322;SDS011;38263;52.920;6.238;2023-02-18T08:48:23;13.75;;;7.15;;
52322;SDS011;38263;52.920;6.238;2023-02-18T08:50:49;19.75;;;6.85;;
52322;SDS011;38263;52.920;6.238;2023-02-18T08:53:15;19.92;;;6.85;;
52322;SDS011;38263;52.920;6.238;2023-02-18T08:55:41;18.90;;;6.15;;
52322;SDS011;38263;52.920;6.238;2023-02-18T08:58:07;17.65;;;6.68;;
52322;SDS011;38263;52.920;6.238;2023-02-18T09:00:34;14.45;;;6.20;;
52322;SDS011;38263;52.920;6.238;2023-02-18T09:03:00;12.35;;;5.28;;
52322;SDS011;38263;52.920;6.238;2023-02-18T09:05:26;14.63;;;5.53;;
52322;SDS011;38263;52.920;6.238;2023-02-18T09:07:52;13.05;;;5.47;;
52322;SDS011;38263;52.920;6.238;2023-02-18T09:10:18;16.98;;;5.20;;
52322;SDS011;38263;52.920;6.238;2023-02-18T09:12:44;16.52;;;5.57;;
52322;SDS011;38263;52.920;6.238;2023-02-18T09:15:10;15.70;;;4.78;;
52322;SDS011;38263;52.920;6.238;2023-02-18T09:17:36;16.00;;;5.38;;
52322;SDS011;38263;52.920;6.238;2023-02-18T09:20:02;13.13;;;5.18;;
52322;SDS011;38263;52.920;6.238;2023-02-18T09:22:28;11.35;;;5.70;;
52322;SDS011;38263;52.920;6.238;2023-02-18T09:24:54;18.92;;;6.20;;
52322;SDS011;38263;52.920;6.238;2023-02-18T09:27:20;15.55;;;4.80;;
52322;SDS011;38263;52.920;6.238;2023-02-18T09:29:46;14.52;;;5.55;;
52322;SDS011;38263;52.920;6.238;2023-02-18T09:32:13;13.75;;;5.03;;
52322;SDS011;38263;52.920;6.238;2023-02-18T09:34:39;17.00;;;4.90;;
52322;SDS011;38263;52.920;6.238;2023-02-18T09:37:05;15.25;;;4.15;;
52322;SDS011;38263;52.920;6.238;2023-02-18T09:39:31;12.85;;;3.85;;
52322;SDS011;38263;52.920;6.238;2023-02-18T09:41:58;22.67;;;4.47;;
52322;SDS011;38263;52.920;6.238;2023-02-18T09:44:38;12.65;;;2.97;;
52322;SDS011;38263;52.920;6.238;2023-02-18T09:47:05;17.67;;;3.40;;
52322;SDS011;38263;52.920;6.238;2023-02-18T09:49:36;16.83;;;4.35;;
52322;SDS011;38263;52.920;6.238;2023-02-18T09:52:06;13.65;;;3.58;;
52322;SDS011;38263;52.920;6.238;2023-02-18T09:54:42;17.60;;;4.07;;
52322;SDS011;38263;52.920;6.238;2023-02-18T09:57:14;23.73;;;3.90;;
52322;SDS011;38263;52.920;6.238;2023-02-18T09:59:42;8.93;;;2.67;;
52322;SDS011;38263;52.920;6.238;2023-02-18T10:02:09;8.40;;;2.50;;
52322;SDS011;38263;52.920;6.238;2023-02-18T10:04:42;7.07;;;2.75;;
52322;SDS011;38263;52.920;6.238;2023-02-18T10:07:31;14.00;;;3.08;;
52322;SDS011;38263;52.920;6.238;2023-02-18T10:10:00;13.45;;;2.30;;
52322;SDS011;38263;52.920;6.238;2023-02-18T10:12:28;12.07;;;2.60;;
52322;SDS011;38263;52.920;6.238;2023-02-18T10:14:58;12.55;;;2.40;;
52322;SDS011;38263;52.920;6.238;2023-02-18T10:17:26;13.18;;;2.40;;
52322;SDS011;38263;52.920;6.238;2023-02-18T10:19:55;7.85;;;2.42;;
52322;SDS011;38263;52.920;6.238;2023-02-18T10:22:22;21.02;;;3.80;;
52322;SDS011;38263;52.920;6.238;2023-02-18T10:24:53;12.75;;;3.05;;
52322;SDS011;38263;52.920;6.238;2023-02-18T10:27:30;13.00;;;3.35;;
52322;SDS011;38263;52.920;6.238;2023-02-18T10:30:40;15.57;;;2.55;;
52322;SDS011;38263;52.920;6.238;2023-02-18T10:32:46;14.77;;;2.42;;
52322;SDS011;38263;52.920;6.238;2023-02-18T10:35:22;13.07;;;2.95;;
52322;SDS011;38263;52.920;6.238;2023-02-18T10:37:56;10.23;;;2.35;;
52322;SDS011;38263;52.920;6.238;2023-02-18T10:40:47;16.90;;;3.25;;
52322;SDS011;38263;52.920;6.238;2023-02-18T10:45:52;11.90;;;2.83;;
52322;SDS011;38263;52.920;6.238;2023-02-18T10:48:36;13.27;;;2.67;;
52322;SDS011;38263;52.920;6.238;2023-02-18T10:51:14;13.07;;;2.58;;
52322;SDS011;38263;52.920;6.238;2023-02-18T10:53:50;11.82;;;2.38;;
52322;SDS011;38263;52.920;6.238;2023-02-18T10:59:38;14.88;;;2.63;;
52322;SDS011;38263;52.920;6.238;2023-02-18T11:04:33;12.48;;;3.00;;
52322;SDS011;38263;52.920;6.238;2023-02-18T11:07:04;15.15;;;2.63;;
52322;SDS011;38263;52.920;6.238;2023-02-18T11:12:06;12.15;;;2.03;;
52322;SDS011;38263;52.920;6.238;2023-02-18T11:17:34;7.90;;;2.33;;
52322;SDS011;38263;52.920;6.238;2023-02-18T11:20:03;13.75;;;2.97;;
52322;SDS011;38263;52.920;6.238;2023-02-18T11:22:58;9.20;;;2.15;;
52322;SDS011;38263;52.920;6.238;2023-02-18T11:25:37;11.90;;;2.25;;
52322;SDS011;38263;52.920;6.238;2023-02-18T11:28:51;12.77;;;3.70;;
52322;SDS011;38263;52.920;6.238;2023-02-18T11:30:58;10.18;;;2.33;;
52322;SDS011;38263;52.920;6.238;2023-02-18T11:33:30;18.13;;;2.78;;
52322;SDS011;38263;52.920;6.238;2023-02-18T11:35:57;7.75;;;2.60;;
52322;SDS011;38263;52.920;6.238;2023-02-18T11:38:37;16.08;;;3.33;;
52322;SDS011;38263;52.920;6.238;2023-02-18T11:41:09;13.68;;;3.25;;
52322;SDS011;38263;52.920;6.238;2023-02-18T11:43:41;8.90;;;2.55;;
52322;SDS011;38263;52.920;6.238;2023-02-18T11:46:18;15.57;;;2.80;;
52322;SDS011;38263;52.920;6.238;2023-02-18T11:48:46;12.52;;;3.55;;
52322;SDS011;38263;52.920;6.238;2023-02-18T11:51:20;8.60;;;2.40;;
52322;SDS011;38263;52.920;6.238;2023-02-18T11:53:56;12.98;;;2.47;;
52322;SDS011;38263;52.920;6.238;2023-02-18T11:56:34;10.57;;;3.00;;
52322;SDS011;38263;52.920;6.238;2023-02-18T11:59:00;10.05;;;2.40;;
52322;SDS011;38263;52.920;6.238;2023-02-18T12:01:29;13.43;;;2.60;;
52322;SDS011;38263;52.920;6.238;2023-02-18T12:04:06;13.82;;;2.78;;
52322;SDS011;38263;52.920;6.238;2023-02-18T12:12:13;13.98;;;3.55;;
52322;SDS011;38263;52.920;6.238;2023-02-18T12:14:43;11.07;;;3.10;;
52322;SDS011;38263;52.920;6.238;2023-02-18T12:20:19;8.95;;;2.88;;
52322;SDS011;38263;52.920;6.238;2023-02-18T12:23:11;10.15;;;2.67;;
52322;SDS011;38263;52.920;6.238;2023-02-18T12:25:43;10.10;;;3.47;;
52322;SDS011;38263;52.920;6.238;2023-02-18T12:28:28;10.07;;;2.83;;
52322;SDS011;38263;52.920;6.238;2023-02-18T12:38:48;9.30;;;2.30;;
52322;SDS011;38263;52.920;6.238;2023-02-18T12:49:59;13.10;;;3.58;;
52322;SDS011;38263;52.920;6.238;2023-02-18T12:52:53;15.32;;;3.25;;
52322;SDS011;38263;52.920;6.238;2023-02-18T12:55:26;17.45;;;4.32;;
52322;SDS011;38263;52.920;6.238;2023-02-18T13:08:21;10.90;;;2.40;;
52322;SDS011;38263;52.920;6.238;2023-02-18T13:11:05;10.73;;;3.92;;
52322;SDS011;38263;52.920;6.238;2023-02-18T13:13:40;13.63;;;2.58;;
52322;SDS011;38263;52.920;6.238;2023-02-18T13:16:11;7.55;;;2.33;;
52322;SDS011;38263;52.920;6.238;2023-02-18T13:18:39;4.10;;;2.00;;
52322;SDS011;38263;52.920;6.238;2023-02-18T13:21:13;16.40;;;4.32;;
52322;SDS011;38263;52.920;6.238;2023-02-18T13:23:52;10.40;;;2.85;;
52322;SDS011;38263;52.920;6.238;2023-02-18T13:26:19;10.18;;;2.55;;
52322;SDS011;38263;52.920;6.238;2023-02-18T13:37:02;9.43;;;2.70;;
52322;SDS011;38263;52.920;6.238;2023-02-18T13:39:52;12.32;;;2.83;;
52322;SDS011;38263;52.920;6.238;2023-02-18T13:42:24;7.45;;;2.70;;
52322;SDS011;38263;52.920;6.238;2023-02-18T13:50:12;16.58;;;3.38;;
52322;SDS011;38263;52.920;6.238;2023-02-18T13:52:49;11.10;;;2.30;;
52322;SDS011;38263;52.920;6.238;2023-02-18T13:55:21;18.70;;;2.97;;
52322;SDS011;38263;52.920;6.238;2023-02-18T13:57:58;15.30;;;3.08;;
52322;SDS011;38263;52.920;6.238;2023-02-18T14:00:25;14.70;;;2.85;;
52322;SDS011;38263;52.920;6.238;2023-02-18T14:03:02;16.83;;;2.90;;
52322;SDS011;38263;52.920;6.238;2023-02-18T14:08:45;11.20;;;2.85;;
52322;SDS011;38263;52.920;6.238;2023-02-18T14:13:54;9.30;;;2.45;;
52322;SDS011;38263;52.920;6.238;2023-02-18T14:16:20;15.70;;;2.90;;
52322;SDS011;38263;52.920;6.238;2023-02-18T14:18:56;10.63;;;2.97;;
52322;SDS011;38263;52.920;6.238;2023-02-18T14:21:36;10.45;;;2.72;;
52322;SDS011;38263;52.920;6.238;2023-02-18T14:24:08;8.68;;;2.75;;
52322;SDS011;38263;52.920;6.238;2023-02-18T14:26:38;13.60;;;3.10;;
52322;SDS011;38263;52.920;6.238;2023-02-18T14:29:13;8.93;;;2.70;;
52322;SDS011;38263;52.920;6.238;2023-02-18T14:34:18;18.30;;;3.13;;
52322;SDS011;38263;52.920;6.238;2023-02-18T14:37:00;10.20;;;3.70;;
52322;SDS011;38263;52.920;6.238;2023-02-18T14:39:38;16.08;;;4.45;;
52322;SDS011;38263;52.920;6.238;2023-02-18T14:50:57;19.35;;;4.97;;
52322;SDS011;38263;52.920;6.238;2023-02-18T14:53:25;11.82;;;4.18;;
52322;SDS011;38263;52.920;6.238;2023-02-18T14:55:58;13.88;;;2.78;;
52322;SDS011;38263;52.920;6.238;2023-02-18T14:58:30;13.75;;;3.80;;
52322;SDS011;38263;52.920;6.238;2023-02-18T15:01:21;10.95;;;3.72;;
52322;SDS011;38263;52.920;6.238;2023-02-18T15:03:52;17.83;;;3.88;;
52322;SDS011;38263;52.920;6.238;2023-02-18T15:08:57;10.10;;;3.25;;
52322;SDS011;38263;52.920;6.238;2023-02-18T15:11:34;16.08;;;3.72;;
52322;SDS011;38263;52.920;6.238;2023-02-18T15:14:07;16.58;;;4.70;;
52322;SDS011;38263;52.920;6.238;2023-02-18T15:16:34;14.43;;;3.58;;
52322;SDS011;38263;52.920;6.238;2023-02-18T15:19:01;18.17;;;3.75;;
52322;SDS011;38263;52.920;6.238;2023-02-18T15:21:30;17.83;;;4.55;;
52322;SDS011;38263;52.920;6.238;2023-02-18T15:24:08;15.55;;;3.78;;
52322;SDS011;38263;52.920;6.238;2023-02-18T15:26:53;16.40;;;3.17;;
52322;SDS011;38263;52.920;6.238;2023-02-18T15:29:23;11.75;;;2.72;;
52322;SDS011;38263;52.920;6.238;2023-02-18T15:31:50;17.48;;;3.10;;
52322;SDS011;38263;52.920;6.238;2023-02-18T15:34:23;14.80;;;2.97;;
52322;SDS011;38263;52.920;6.238;2023-02-18T15:36:57;14.60;;;3.70;;
52322;SDS011;38263;52.920;6.238;2023-02-18T15:39:23;16.25;;;3.08;;
52322;SDS011;38263;52.920;6.238;2023-02-18T15:42:32;16.75;;;3.53;;
52322;SDS011;38263;52.920;6.238;2023-02-18T15:44:44;15.90;;;3.03;;
52322;SDS011;38263;52.920;6.238;2023-02-18T15:47:15;15.80;;;2.90;;
52322;SDS011;38263;52.920;6.238;2023-02-18T15:49:44;17.27;;;3.38;;
52322;SDS011;38263;52.920;6.238;2023-02-18T15:52:12;15.15;;;3.00;;
52322;SDS011;38263;52.920;6.238;2023-02-18T15:54:39;19.90;;;3.58;;
52322;SDS011;38263;52.920;6.238;2023-02-18T15:57:06;15.50;;;3.25;;
52322;SDS011;38263;52.920;6.238;2023-02-18T15:59:42;8.68;;;3.03;;
52322;SDS011;38263;52.920;6.238;2023-02-18T16:02:13;15.77;;;3.03;;
52322;SDS011;38263;52.920;6.238;2023-02-18T16:04:47;13.73;;;3.20;;
52322;SDS011;38263;52.920;6.238;2023-02-18T16:07:22;12.00;;;3.17;;
52322;SDS011;38263;52.920;6.238;2023-02-18T16:09:48;12.63;;;3.08;;
52322;SDS011;38263;52.920;6.238;2023-02-18T16:12:21;13.43;;;3.40;;
52322;SDS011;38263;52.920;6.238;2023-02-18T16:14:53;14.32;;;2.95;;
52322;SDS011;38263;52.920;6.238;2023-02-18T16:17:20;11.43;;;2.80;;
52322;SDS011;38263;52.920;6.238;2023-02-18T16:19:49;24.35;;;7.35;;
52322;SDS011;38263;52.920;6.238;2023-02-18T16:24:56;11.10;;;2.70;;
52322;SDS011;38263;52.920;6.238;2023-02-18T16:27:27;9.18;;;2.30;;
52322;SDS011;38263;52.920;6.238;2023-02-18T16:29:58;15.70;;;3.00;;
52322;SDS011;38263;52.920;6.238;2023-02-18T16:32:26;13.23;;;2.70;;
52322;SDS011;38263;52.920;6.238;2023-02-18T16:34:52;11.70;;;2.80;;
52322;SDS011;38263;52.920;6.238;2023-02-18T16:37:18;10.00;;;2.63;;
52322;SDS011;38263;52.920;6.238;2023-02-18T16:40:04;17.65;;;3.03;;
52322;SDS011;38263;52.920;6.238;2023-02-18T16:42:45;10.68;;;2.65;;
52322;SDS011;38263;52.920;6.238;2023-02-18T16:45:11;12.57;;;2.65;;
52322;SDS011;38263;52.920;6.238;2023-02-18T16:47:38;13.98;;;2.95;;